Time;durP1;ratioP1;P1;durP2;ratioP2;P2;SDS_P1;SDS_P2;PMS_P1;PMS_P2;Temp;Humidity;BMP_temperature;BMP_pressure;BME280_temperature;BME280_humidity;BME280_pressure;Samples;Min_cycle;Max_cycle;Signal;HPM_P1;HPM_P2
2021/03/07 00:02:16;;;;;;;14.82;9.60;;;;;;;8.88;45.10;102640.13;4880332;29;20450;-65
2021/03/07 00:04:42;;;;;;;14.10;9.43;;;;;;;8.84;44.94;102641.94;4884033;29;20587;-65
2021/03/07 00:07:08;;;;;;;15.23;8.80;;;;;;;8.80;45.06;102637.66;4898750;29;20045;-66
2021/03/07 00:09:34;;;;;;;14.27;9.30;;;;;;;8.75;45.15;102637.75;4892136;29;20472;-65
2021/03/07 00:12:01;;;;;;;12.98;8.55;;;;;;;8.70;45.11;102630.84;4888555;29;20050;-66
2021/03/07 00:14:27;;;;;;;11.73;8.75;;;;;;;8.67;45.06;102634.38;4895563;29;20059;-65
2021/03/07 00:16:53;;;;;;;15.10;9.10;;;;;;;8.62;45.22;102626.63;4898419;29;20052;-65
2021/03/07 00:19:19;;;;;;;11.63;8.93;;;;;;;8.58;44.98;102627.59;4892201;29;20427;-65
2021/03/07 00:21:45;;;;;;;12.93;8.60;;;;;;;8.55;45.25;102618.94;4883106;29;20052;-65
2021/03/07 00:24:11;;;;;;;12.15;9.05;;;;;;;8.50;45.38;102619.00;4880130;29;20056;-65
2021/03/07 00:26:38;;;;;;;13.07;9.52;;;;;;;8.48;45.49;102619.03;4893672;29;20053;-65
2021/03/07 00:29:04;;;;;;;17.95;9.07;;;;;;;8.45;45.73;102621.66;4898591;29;20503;-65
2021/03/07 00:31:30;;;;;;;12.57;8.63;;;;;;;8.44;45.88;102619.06;4898655;29;20052;-66
2021/03/07 00:33:57;;;;;;;15.35;9.07;;;;;;;8.41;46.00;102619.97;4898181;29;20491;-65
2021/03/07 00:36:23;;;;;;;13.15;8.68;;;;;;;8.39;46.11;102620.91;4888519;29;20075;-65
2021/03/07 00:38:49;;;;;;;9.93;7.75;;;;;;;8.36;45.96;102615.72;4892610;29;20049;-65
2021/03/07 00:41:17;;;;;;;14.75;8.98;;;;;;;8.31;46.07;102615.81;4880414;29;20512;-65
2021/03/07 00:43:43;;;;;;;10.43;7.85;;;;;;;8.26;46.23;102615.03;4881327;29;20049;-65
2021/03/07 00:46:09;;;;;;;12.88;8.57;;;;;;;8.21;46.11;102616.84;4898462;29;20055;-65
2021/03/07 00:48:35;;;;;;;12.23;8.63;;;;;;;8.16;46.20;102614.28;4881598;29;20044;-65
2021/03/07 00:51:02;;;;;;;12.60;8.90;;;;;;;8.13;46.19;102620.44;4898268;29;20044;-66
2021/03/07 00:53:28;;;;;;;16.90;9.15;;;;;;;8.14;46.30;102614.31;4887990;29;20052;-66
2021/03/07 00:55:54;;;;;;;15.32;8.60;;;;;;;8.14;46.23;102611.72;4895914;29;20044;-66
2021/03/07 00:58:21;;;;;;;16.30;8.55;;;;;;;8.13;46.41;102612.59;4892922;29;20044;-66
2021/03/07 01:00:48;;;;;;;10.75;8.40;;;;;;;8.11;46.74;102600.44;4897989;29;20430;-65
2021/03/07 01:03:15;;;;;;;12.13;8.30;;;;;;;8.10;46.90;102602.19;4896239;29;20052;-66
2021/03/07 01:05:42;;;;;;;11.25;8.65;;;;;;;8.09;46.78;102594.38;4892896;29;20052;-65
2021/03/07 01:08:08;;;;;;;11.48;8.32;;;;;;;8.11;47.11;102598.69;4891392;29;20045;-65
2021/03/07 01:10:40;;;;;;;15.25;9.05;;;;;;;8.11;47.15;102590.84;4884527;29;20064;-65
2021/03/07 01:13:09;;;;;;;12.35;8.93;;;;;;;8.13;47.32;102590.81;4897787;29;20054;-65
2021/03/07 01:15:36;;;;;;;18.33;9.68;;;;;;;8.13;47.61;102589.06;4892920;29;20049;-65
2021/03/07 01:18:03;;;;;;;12.20;9.05;;;;;;;8.14;47.46;102574.25;4895517;29;20040;-65
2021/03/07 01:20:29;;;;;;;16.77;9.68;;;;;;;8.13;47.64;102577.75;4885339;29;20420;-65
2021/03/07 01:22:57;;;;;;;17.35;10.20;;;;;;;8.10;47.49;102580.41;4879287;29;20060;-65
2021/03/07 01:25:26;;;;;;;14.27;9.00;;;;;;;8.10;47.53;102564.72;4882799;29;20048;-66
2021/03/07 01:27:53;;;;;;;10.75;8.52;;;;;;;8.10;47.54;102562.97;4887070;29;20113;-66
2021/03/07 01:30:22;;;;;;;12.40;8.23;;;;;;;8.12;47.44;102568.16;4894774;29;20053;-65
2021/03/07 01:32:48;;;;;;;11.63;7.93;;;;;;;8.11;47.18;102559.47;4888536;29;20049;-65
2021/03/07 01:35:16;;;;;;;11.63;8.55;;;;;;;8.12;47.16;102557.72;4893112;29;20058;-66
2021/03/07 01:37:42;;;;;;;12.05;8.45;;;;;;;8.12;47.27;102566.41;4897261;29;20480;-66
2021/03/07 01:40:18;;;;;;;13.77;8.10;;;;;;;8.13;47.04;102560.28;4880670;29;20876;-67
2021/03/07 01:42:48;;;;;;;12.18;8.27;;;;;;;8.13;47.13;102556.84;4896537;29;20072;-66
2021/03/07 01:45:28;;;;;;;13.60;8.77;;;;;;;8.11;47.06;102555.97;4897225;29;20113;-67
2021/03/07 01:47:58;;;;;;;12.57;8.00;;;;;;;8.08;46.88;102548.22;4874958;29;20052;-65
2021/03/07 01:50:27;;;;;;;14.38;8.02;;;;;;;8.07;47.07;102544.72;4897160;29;20074;-66
2021/03/07 01:52:54;;;;;;;15.35;9.02;;;;;;;8.03;46.95;102539.56;4885304;29;20053;-66
2021/03/07 01:55:24;;;;;;;12.70;8.75;;;;;;;7.96;47.00;102542.28;4869314;29;20049;-66
2021/03/07 01:57:57;;;;;;;13.23;9.00;;;;;;;7.90;47.11;102534.53;4892083;29;20055;-66
2021/03/07 02:00:24;;;;;;;11.63;8.82;;;;;;;7.85;47.08;102536.38;4878443;29;20058;-65
2021/03/07 02:02:50;;;;;;;13.25;9.18;;;;;;;7.79;47.26;102536.47;4889055;29;20048;-66
2021/03/07 02:05:19;;;;;;;14.02;8.70;;;;;;;7.74;47.15;102538.28;4896759;29;20048;-65
2021/03/07 02:07:46;;;;;;;14.65;9.60;;;;;;;7.71;47.49;102528.75;4896881;29;20064;-65
2021/03/07 02:10:16;;;;;;;15.95;9.75;;;;;;;7.66;47.68;102520.97;4887311;29;20045;-66
2021/03/07 02:12:48;;;;;;;10.95;8.65;;;;;;;7.63;47.68;102515.81;4893428;29;20488;-65
2021/03/07 02:15:16;;;;;;;12.57;8.68;;;;;;;7.62;47.86;102514.09;4896852;29;20052;-66
2021/03/07 02:17:43;;;;;;;12.25;9.20;;;;;;;7.60;47.98;102510.63;4896530;29;20044;-66
2021/03/07 02:20:14;;;;;;;12.60;8.30;;;;;;;7.59;47.93;102515.88;4893972;29;20465;-66
2021/03/07 02:22:44;;;;;;;11.55;8.68;;;;;;;7.55;47.89;102511.59;4893555;29;20104;-66
2021/03/07 02:25:12;;;;;;;10.77;8.32;;;;;;;7.51;47.91;102506.41;4893335;29;20065;-65
2021/03/07 02:27:39;;;;;;;11.63;8.45;;;;;;;7.47;47.81;102507.34;4892001;29;20130;-66
2021/03/07 02:30:09;;;;;;;14.82;8.70;;;;;;;7.43;47.95;102503.06;4894651;29;20389;-65
2021/03/07 02:32:41;;;;;;;10.80;7.85;;;;;;;7.41;47.91;102504.81;4892918;29;20052;-66
2021/03/07 02:35:17;;;;;;;11.60;8.10;;;;;;;7.38;48.03;102497.03;4896245;29;20123;-65
2021/03/07 02:37:52;;;;;;;10.30;7.60;;;;;;;7.34;47.76;102487.53;4892402;29;20073;-65
2021/03/07 02:40:22;;;;;;;11.68;8.38;;;;;;;7.31;47.81;102496.28;4891229;29;20092;-65
2021/03/07 02:43:10;;;;;;;12.30;7.88;;;;;;;7.28;48.16;102488.47;4890741;29;20045;-65
2021/03/07 02:45:39;;;;;;;11.88;7.93;;;;;;;7.27;48.46;102488.50;4890963;29;20048;-67
2021/03/07 02:48:08;;;;;;;11.07;8.13;;;;;;;7.25;48.32;102488.53;4889700;29;20127;-65
2021/03/07 02:50:35;;;;;;;12.60;7.75;;;;;;;7.22;48.21;102485.94;4887579;29;20057;-65
2021/03/07 02:53:06;;;;;;;13.05;7.72;;;;;;;7.18;48.26;102492.94;4890967;29;20502;-66
2021/03/07 02:55:35;;;;;;;10.80;8.02;;;;;;;7.15;48.26;102479.94;4886271;29;20154;-66
2021/03/07 02:58:04;;;;;;;9.95;7.80;;;;;;;7.14;48.10;102474.75;4891025;29;20495;-67
2021/03/07 03:00:33;;;;;;;9.13;7.90;;;;;;;7.13;48.18;102467.81;4885667;29;20053;-65
2021/03/07 03:03:04;;;;;;;10.18;7.55;;;;;;;7.09;48.20;102463.53;4883650;29;20047;-65
2021/03/07 03:05:32;;;;;;;12.10;7.80;;;;;;;7.06;48.33;102466.16;4886515;29;20049;-67
2021/03/07 03:08:01;;;;;;;11.73;7.80;;;;;;;7.05;48.58;102467.03;4890327;29;20060;-65
2021/03/07 03:10:28;;;;;;;13.88;7.90;;;;;;;7.05;48.32;102460.09;4887606;29;20100;-66
2021/03/07 03:12:55;;;;;;;12.38;8.65;;;;;;;7.02;48.41;102466.22;4872227;29;20049;-66
2021/03/07 03:15:22;;;;;;;13.50;8.63;;;;;;;7.00;48.72;102462.75;4889111;29;20088;-65
2021/03/07 03:17:51;;;;;;;11.88;8.55;;;;;;;6.98;48.65;102461.94;4886610;29;20059;-67
2021/03/07 03:20:20;;;;;;;12.48;8.10;;;;;;;6.96;48.78;102455.84;4886691;29;20093;-65
2021/03/07 03:22:48;;;;;;;11.60;7.90;;;;;;;6.95;48.88;102459.34;4888404;29;20044;-66
2021/03/07 03:25:15;;;;;;;10.48;7.82;;;;;;;6.93;48.95;102461.13;4896468;29;20045;-65
2021/03/07 03:27:42;;;;;;;13.32;8.18;;;;;;;6.93;49.01;102460.25;4896286;29;20130;-66
2021/03/07 03:30:20;;;;;;;11.40;7.95;;;;;;;6.92;49.10;102454.19;4896158;29;20448;-66
2021/03/07 03:32:47;;;;;;;10.27;7.97;;;;;;;6.93;49.08;102452.41;4896309;29;20407;-65
2021/03/07 03:35:16;;;;;;;9.70;7.38;;;;;;;6.91;49.22;102460.28;4896404;29;20056;-65
2021/03/07 03:37:43;;;;;;;10.93;7.25;;;;;;;6.89;49.19;102451.59;4896272;29;20063;-65
2021/03/07 03:40:19;;;;;;;13.63;8.65;;;;;;;6.88;49.06;102456.84;4896375;29;20056;-65
2021/03/07 03:42:50;;;;;;;14.23;8.27;;;;;;;6.83;49.24;102451.66;4898606;29;20052;-65
2021/03/07 03:45:18;;;;;;;10.70;8.43;;;;;;;6.80;49.21;102456.94;4899132;29;20051;-65
2021/03/07 03:47:49;;;;;;;11.85;8.02;;;;;;;6.79;49.25;102450.00;4893335;29;20045;-65
2021/03/07 03:50:17;;;;;;;9.52;8.13;;;;;;;6.78;49.23;102450.88;4892400;29;20488;-65
2021/03/07 03:52:46;;;;;;;11.20;7.53;;;;;;;6.80;49.21;102462.16;4886771;29;20127;-65
2021/03/07 03:55:17;;;;;;;12.50;7.90;;;;;;;6.80;49.48;102452.56;4893451;29;20517;-65
2021/03/07 03:57:46;;;;;;;11.70;7.93;;;;;;;6.79;49.61;102458.69;4898601;29;20419;-65
2021/03/07 04:00:19;;;;;;;13.27;7.53;;;;;;;6.79;49.56;102456.09;4899710;29;20408;-65
2021/03/07 04:02:47;;;;;;;11.80;7.63;;;;;;;6.77;49.59;102446.56;4878731;29;20097;-66
2021/03/07 04:05:18;;;;;;;11.30;7.93;;;;;;;6.76;49.74;102448.28;4875571;29;20467;-65
2021/03/07 04:07:48;;;;;;;13.45;8.32;;;;;;;6.75;49.60;102448.31;4877314;29;20400;-66
2021/03/07 04:10:17;;;;;;;14.30;7.82;;;;;;;6.72;49.86;102448.34;4876951;29;20053;-66
2021/03/07 04:12:46;;;;;;;11.07;8.07;;;;;;;6.69;49.94;102449.25;4874780;29;20049;-66
2021/03/07 04:15:14;;;;;;;10.27;7.03;;;;;;;6.66;50.06;102439.72;4877172;29;20519;-65
2021/03/07 04:17:41;;;;;;;11.35;7.93;;;;;;;6.66;50.05;102447.53;4879795;29;20048;-66
2021/03/07 04:20:08;;;;;;;9.35;7.72;;;;;;;6.63;50.17;102451.94;4892769;29;20055;-66
2021/03/07 04:22:35;;;;;;;12.18;7.18;;;;;;;6.61;50.02;102445.88;4886108;29;20448;-66
2021/03/07 04:25:02;;;;;;;12.40;8.00;;;;;;;6.58;50.20;102444.19;4895851;29;20056;-66
2021/03/07 04:27:30;;;;;;;10.07;7.15;;;;;;;6.57;50.28;102437.22;4895741;29;20048;-66
2021/03/07 04:29:56;;;;;;;11.77;7.78;;;;;;;6.59;50.42;102445.03;4895273;29;20562;-65
2021/03/07 04:32:23;;;;;;;9.63;8.10;;;;;;;6.59;50.29;102448.50;4895715;29;20049;-66
2021/03/07 04:34:49;;;;;;;11.23;7.43;;;;;;;6.60;50.63;102442.41;4895450;29;20060;-65
2021/03/07 04:37:16;;;;;;;10.43;6.65;;;;;;;6.61;50.86;102440.66;4895663;29;20495;-66
2021/03/07 04:39:42;;;;;;;11.35;7.38;;;;;;;6.61;50.55;102440.66;4895786;29;20087;-65
2021/03/07 04:42:09;;;;;;;9.35;7.10;;;;;;;6.61;50.56;102438.06;4895509;29;20055;-67
2021/03/07 04:44:37;;;;;;;10.52;6.88;;;;;;;6.59;50.60;102439.81;4895342;29;20055;-66
2021/03/07 04:47:03;;;;;;;9.70;7.22;;;;;;;6.59;50.75;102434.59;4895162;29;20052;-66
2021/03/07 04:49:30;;;;;;;10.13;6.97;;;;;;;6.60;50.68;102429.38;4895377;29;20502;-66
2021/03/07 04:51:56;;;;;;;8.95;7.18;;;;;;;6.60;50.96;102429.38;4895343;29;20108;-65
2021/03/07 04:54:23;;;;;;;14.38;6.85;;;;;;;6.62;51.16;102426.75;4894077;29;20053;-65
2021/03/07 04:56:49;;;;;;;8.55;6.60;;;;;;;6.62;51.16;102425.00;4894993;29;20521;-65
2021/03/07 04:59:15;;;;;;;11.23;7.25;;;;;;;6.63;51.34;102415.44;4895086;29;20124;-66
2021/03/07 05:01:42;;;;;;;14.25;7.78;;;;;;;6.62;51.35;102422.38;4895350;29;20062;-65
2021/03/07 05:04:08;;;;;;;11.63;8.32;;;;;;;6.62;51.29;102425.00;4894941;29;20052;-65
2021/03/07 05:06:38;;;;;;;10.23;7.38;;;;;;;6.60;51.47;102424.16;4895035;29;20076;-66
2021/03/07 05:09:09;;;;;;;9.77;7.28;;;;;;;6.58;51.26;102423.31;4894828;29;20499;-65
2021/03/07 05:11:36;;;;;;;12.25;7.43;;;;;;;6.57;51.19;102426.78;4894744;29;20053;-66
2021/03/07 05:14:03;;;;;;;9.95;6.95;;;;;;;6.55;51.24;102420.72;4894508;29;20409;-65
2021/03/07 05:16:29;;;;;;;10.15;7.20;;;;;;;6.53;51.22;102425.97;4894878;29;20052;-67
2021/03/07 05:18:56;;;;;;;9.60;7.22;;;;;;;6.51;51.23;102417.31;4894628;29;20074;-66
2021/03/07 05:21:26;;;;;;;12.40;7.40;;;;;;;6.48;51.26;102414.72;4881884;29;20049;-65
2021/03/07 05:23:54;;;;;;;10.45;7.22;;;;;;;6.48;51.36;102421.69;4881765;29;20503;-67
2021/03/07 05:26:21;;;;;;;9.80;7.00;;;;;;;6.47;51.36;102415.59;4894780;29;20055;-65
2021/03/07 05:28:47;;;;;;;10.65;7.32;;;;;;;6.48;51.37;102421.69;4877643;29;20053;-65
2021/03/07 05:31:14;;;;;;;12.35;7.82;;;;;;;6.47;51.55;102417.38;4895132;29;20407;-66
2021/03/07 05:33:41;;;;;;;12.15;7.10;;;;;;;6.45;51.37;102414.78;4894500;29;20053;-65
2021/03/07 05:36:07;;;;;;;12.07;7.28;;;;;;;6.45;51.85;102413.91;4894402;29;20056;-67
2021/03/07 05:38:33;;;;;;;12.55;7.68;;;;;;;6.43;51.93;102419.13;4894163;29;20064;-66
2021/03/07 05:40:59;;;;;;;9.18;7.03;;;;;;;6.42;52.50;102422.63;4894569;29;20045;-66
2021/03/07 05:43:26;;;;;;;11.90;7.43;;;;;;;6.40;52.41;102418.31;4894269;29;20044;-65
2021/03/07 05:45:52;;;;;;;11.05;7.38;;;;;;;6.38;52.76;102415.72;4894140;29;20041;-66
2021/03/07 05:48:19;;;;;;;11.63;7.75;;;;;;;6.36;52.71;102413.16;4894092;29;20108;-65
2021/03/07 05:50:46;;;;;;;13.18;7.60;;;;;;;6.36;52.79;102413.16;4894131;29;20495;-66
2021/03/07 05:53:12;;;;;;;9.90;7.43;;;;;;;6.40;52.63;102416.59;4894576;29;20045;-65
2021/03/07 05:55:39;;;;;;;13.30;7.55;;;;;;;6.38;52.70;102413.97;4882625;29;20051;-65
2021/03/07 05:58:14;;;;;;;12.07;7.63;;;;;;;6.37;52.69;102414.88;4888096;29;20495;-64
2021/03/07 06:00:52;;;;;;;9.57;7.30;;;;;;;6.37;52.97;102401.84;4884373;29;20053;-70
2021/03/07 06:03:24;;;;;;;10.07;7.63;;;;;;;6.39;52.67;102401.81;4893662;29;20108;-69
2021/03/07 06:05:51;;;;;;;10.80;7.15;;;;;;;6.41;52.92;102396.56;4893593;29;20068;-66
2021/03/07 06:08:19;;;;;;;10.43;7.45;;;;;;;6.42;52.98;102400.91;4893997;29;20052;-66
2021/03/07 06:10:45;;;;;;;13.20;7.40;;;;;;;6.42;53.04;102396.56;4893757;29;20063;-65
2021/03/07 06:13:11;;;;;;;11.32;7.70;;;;;;;6.43;53.02;102394.81;4894506;29;20500;-66
2021/03/07 06:15:50;;;;;;;11.85;8.15;;;;;;;6.43;53.11;102390.47;4893979;29;20055;-63
2021/03/07 06:18:18;;;;;;;11.85;8.40;;;;;;;6.43;53.07;102389.59;4867758;29;20076;-62
2021/03/07 06:20:47;;;;;;;10.77;7.70;;;;;;;6.42;53.11;102393.09;4885837;29;20053;-63
2021/03/07 06:23:13;;;;;;;12.02;7.38;;;;;;;6.40;53.00;102390.50;4888879;29;20571;-63
2021/03/07 06:25:47;;;;;;;13.00;8.60;;;;;;;6.39;53.04;102386.16;4893885;29;20044;-63
2021/03/07 06:28:21;;;;;;;14.07;8.20;;;;;;;6.40;52.97;102393.13;4893672;29;20059;-63
2021/03/07 06:30:47;;;;;;;11.48;8.65;;;;;;;6.41;53.18;102388.75;4869934;29;20100;-65
2021/03/07 06:33:28;;;;;;;12.23;8.10;;;;;;;6.42;53.23;102380.06;4893897;29;20064;-68
2021/03/07 06:36:18;;;;;;;13.52;9.20;;;;;;;6.43;53.19;102381.78;4893677;29;20055;-68
2021/03/07 06:38:54;;;;;;;13.30;9.25;;;;;;;6.42;53.33;102380.91;4893326;29;20061;-66
2021/03/07 06:41:23;;;;;;;12.35;10.18;;;;;;;6.40;53.29;102385.28;4893604;29;20100;-68
2021/03/07 06:43:50;;;;;;;15.20;9.10;;;;;;;6.39;53.57;102373.13;4893129;29;20116;-69
2021/03/07 06:46:34;;;;;;;11.32;8.35;;;;;;;6.37;53.40;102393.13;4893667;29;20051;-69
2021/03/07 06:49:01;;;;;;;11.32;8.15;;;;;;;6.35;53.70;102398.38;4893356;29;20546;-66
2021/03/07 06:51:34;;;;;;;10.05;7.95;;;;;;;6.34;53.78;102393.19;4876938;29;20127;-66
2021/03/07 06:54:21;;;;;;;11.48;8.32;;;;;;;6.36;53.61;102392.28;4893250;29;20052;-66
2021/03/07 06:56:49;;;;;;;12.45;8.80;;;;;;;6.40;53.86;102389.63;4893378;29;20052;-66
2021/03/07 06:59:19;;;;;;;15.23;9.48;;;;;;;6.43;53.74;102397.44;4893167;29;20052;-67
2021/03/07 07:01:47;;;;;;;13.85;8.68;;;;;;;6.44;53.84;102384.38;4893513;29;20219;-65
2021/03/07 07:04:15;;;;;;;16.05;8.20;;;;;;;6.49;53.80;102381.72;4893632;29;20056;-66
2021/03/07 07:06:42;;;;;;;13.02;8.60;;;;;;;6.56;53.90;102391.16;4893631;29;20051;-66
2021/03/07 07:09:10;;;;;;;15.23;9.07;;;;;;;6.62;53.60;102387.63;4893429;29;20049;-69
2021/03/07 07:11:47;;;;;;;12.50;8.70;;;;;;;6.72;53.57;102388.34;4893387;29;20097;-67
2021/03/07 07:14:40;;;;;;;12.68;9.05;;;;;;;6.84;53.29;102389.06;4893232;29;20053;-65
2021/03/07 07:17:11;;;;;;;12.30;8.40;;;;;;;6.97;53.09;102392.34;4894988;29;20060;-67
2021/03/07 07:19:39;;;;;;;15.93;9.27;;;;;;;7.12;52.81;102387.75;4896874;29;20078;-70
2021/03/07 07:22:06;;;;;;;12.70;8.45;;;;;;;7.28;52.09;102383.16;4883610;29;20045;-65
2021/03/07 07:24:32;;;;;;;12.18;9.10;;;;;;;7.41;51.41;102381.22;4896985;29;20078;-66
2021/03/07 07:27:00;;;;;;;13.82;7.88;;;;;;;7.54;50.97;102384.47;4896611;29;20045;-65
2021/03/07 07:29:26;;;;;;;14.27;8.75;;;;;;;7.67;50.89;102381.63;4896609;29;20056;-68
2021/03/07 07:32:12;;;;;;;12.15;7.80;;;;;;;7.81;50.42;102391.81;4896614;29;20049;-66
2021/03/07 07:34:47;;;;;;;11.77;7.13;;;;;;;7.95;50.15;102386.31;4896888;29;20056;-68
2021/03/07 07:37:24;;;;;;;10.02;7.05;;;;;;;8.08;49.61;102386.09;4896745;29;20051;-66
2021/03/07 07:39:53;;;;;;;11.52;7.95;;;;;;;8.20;49.73;102384.97;4896573;29;20048;-65
2021/03/07 07:42:24;;;;;;;10.00;7.32;;;;;;;8.26;49.46;102377.88;4896449;29;20048;-68
2021/03/07 07:44:51;;;;;;;10.43;7.32;;;;;;;8.39;49.37;102380.22;4896268;29;20048;-66
2021/03/07 07:47:19;;;;;;;14.95;7.03;;;;;;;8.47;49.23;102379.22;4896355;29;20453;-69
2021/03/07 07:49:47;;;;;;;10.57;7.97;;;;;;;8.58;49.01;102375.50;4887527;29;20060;-69
2021/03/07 07:52:32;;;;;;;10.95;7.97;;;;;;;8.69;48.77;102373.50;4896138;29;20452;-66
2021/03/07 07:55:09;;;;;;;11.52;7.78;;;;;;;8.82;48.66;102380.19;4896568;29;20052;-67
2021/03/07 07:57:41;;;;;;;11.13;7.82;;;;;;;8.93;48.53;102376.47;4896175;29;20041;-68
2021/03/07 08:00:13;;;;;;;10.10;6.45;;;;;;;9.01;48.22;102382.38;4896201;29;20052;-65
2021/03/07 08:02:42;;;;;;;8.95;6.57;;;;;;;9.11;47.89;102377.78;4896210;29;20051;-69
2021/03/07 08:05:21;;;;;;;10.88;7.45;;;;;;;9.23;47.90;102379.22;4896371;29;20579;-65
2021/03/07 08:08:01;;;;;;;10.68;8.38;;;;;;;9.36;47.70;102374.53;4896013;29;20048;-65
2021/03/07 08:10:49;;;;;;;11.65;7.88;;;;;;;9.41;47.42;102375.31;4895862;29;20051;-69
2021/03/07 08:13:27;;;;;;;8.73;6.85;;;;;;;9.50;47.38;102379.44;4871285;29;20121;-65
2021/03/07 08:15:55;;;;;;;15.05;7.55;;;;;;;9.58;46.91;102370.47;4895810;29;20522;-66
2021/03/07 08:18:23;;;;;;;11.88;7.53;;;;;;;9.69;46.56;102371.94;4895960;29;20052;-66
2021/03/07 08:20:49;;;;;;;10.80;7.50;;;;;;;9.77;46.51;102368.22;4887490;29;20053;-66
2021/03/07 08:23:18;;;;;;;11.55;7.28;;;;;;;9.85;45.59;102370.63;4891294;29;20048;-67
2021/03/07 08:25:47;;;;;;;16.40;8.50;;;;;;;9.91;45.01;102374.88;4895769;29;20053;-66
2021/03/07 08:28:25;;;;;;;12.80;7.38;;;;;;;9.99;45.08;102365.00;4895306;29;20127;-65
2021/03/07 08:31:14;;;;;;;14.45;7.70;;;;;;;10.13;45.04;102373.38;4885938;29;20052;-69
2021/03/07 08:33:42;;;;;;;11.55;7.82;;;;;;;10.18;44.38;102367.13;4871577;29;20057;-68
2021/03/07 08:36:25;;;;;;;12.45;8.02;;;;;;;10.19;44.02;102360.97;4886145;29;20052;-67
2021/03/07 08:38:54;;;;;;;12.55;8.27;;;;;;;10.26;43.94;102360.75;4885757;29;20055;-66
2021/03/07 08:41:32;;;;;;;13.70;8.00;;;;;;;10.40;44.06;102364.78;4885322;29;20049;-63
2021/03/07 08:43:59;;;;;;;10.07;7.18;;;;;;;10.50;43.92;102360.09;4885987;29;20063;-67
2021/03/07 08:46:45;;;;;;;11.38;7.97;;;;;;;10.62;43.46;102349.22;4885106;29;20041;-67
2021/03/07 08:49:26;;;;;;;11.00;7.22;;;;;;;10.72;43.29;102347.19;4887101;29;20518;-69
2021/03/07 08:52:02;;;;;;;10.85;7.68;;;;;;;10.80;42.76;102345.16;4876318;29;20439;-66
2021/03/07 08:54:31;;;;;;;12.45;8.90;;;;;;;10.90;42.71;102343.94;4885403;29;20496;-66
2021/03/07 08:57:05;;;;;;;12.25;7.75;;;;;;;11.01;42.55;102348.00;4892330;29;20550;-71
2021/03/07 08:59:34;;;;;;;11.52;8.38;;;;;;;11.07;42.42;102342.53;4893093;29;20419;-68
2021/03/07 09:02:02;;;;;;;11.40;8.85;;;;;;;11.16;42.09;102347.50;4894011;29;20522;-66
2021/03/07 09:04:38;;;;;;;15.38;9.50;;;;;;;11.20;41.81;102343.88;4891507;29;20048;-69
2021/03/07 09:07:04;;;;;;;15.60;9.20;;;;;;;11.31;41.71;102340.84;4892226;29;20411;-67
2021/03/07 09:09:31;;;;;;;16.50;10.70;;;;;;;11.47;41.76;102337.72;4890095;29;20045;-69
2021/03/07 09:12:00;;;;;;;14.57;10.93;;;;;;;11.61;41.72;102338.09;4878856;29;20048;-69
2021/03/07 09:14:37;;;;;;;11.95;9.35;;;;;;;11.81;41.46;102334.75;4885378;29;20049;-68
2021/03/07 09:17:06;;;;;;;14.80;10.23;;;;;;;11.92;40.94;102329.97;4879662;29;20056;-66
2021/03/07 09:19:40;;;;;;;10.90;7.95;;;;;;;12.00;40.55;102326.19;4883611;29;20137;-64
2021/03/07 09:22:11;;;;;;;13.80;8.13;;;;;;;12.10;40.24;102317.06;4878527;29;20105;-67
2021/03/07 09:24:46;;;;;;;11.32;6.93;;;;;;;12.24;39.78;102316.56;4876719;29;20056;-66
2021/03/07 09:27:14;;;;;;;11.85;8.10;;;;;;;12.39;39.22;102320.34;4876916;29;20045;-68
2021/03/07 09:29:55;;;;;;;11.10;8.32;;;;;;;12.53;38.51;102318.03;4874982;29;20461;-66
2021/03/07 09:32:27;;;;;;;11.32;8.32;;;;;;;12.68;38.03;102306.00;4876409;29;20496;-67
2021/03/07 09:34:54;;;;;;;13.88;8.10;;;;;;;12.84;37.80;102311.53;4876056;29;20049;-70
2021/03/07 09:37:22;;;;;;;10.30;7.80;;;;;;;12.97;37.47;102297.84;4876280;29;20076;-70
2021/03/07 09:39:50;;;;;;;13.25;7.80;;;;;;;13.08;37.17;102298.25;4875076;29;20410;-71
2021/03/07 09:42:17;;;;;;;9.98;7.03;;;;;;;13.20;36.41;102297.75;4876555;29;20051;-73
2021/03/07 09:44:44;;;;;;;11.25;7.82;;;;;;;13.28;36.06;102292.13;4876553;29;20072;-72
2021/03/07 09:47:12;;;;;;;10.90;7.57;;;;;;;13.42;35.83;102288.94;4873897;29;20081;-72
2021/03/07 09:49:39;;;;;;;9.52;7.63;;;;;;;13.53;35.87;102283.19;4875309;29;20463;-72
2021/03/07 09:52:07;;;;;;;9.63;6.63;;;;;;;13.57;35.22;102279.47;4874466;29;20084;-71
2021/03/07 09:54:34;;;;;;;10.38;6.25;;;;;;;13.59;34.83;102279.44;4874299;29;20067;-71
2021/03/07 09:57:00;;;;;;;11.45;7.40;;;;;;;13.65;34.46;102280.00;4875157;29;20404;-68
2021/03/07 09:59:32;;;;;;;13.05;8.38;;;;;;;13.75;34.11;102275.16;4881372;29;20059;-69
2021/03/07 10:02:04;;;;;;;11.23;7.03;;;;;;;13.90;33.80;102265.66;4877439;29;20040;-71
2021/03/07 10:04:38;;;;;;;9.50;6.10;;;;;;;14.08;33.46;102271.91;4876839;29;20077;-66
2021/03/07 10:07:10;;;;;;;9.77;5.93;;;;;;;14.25;33.13;102259.69;4873948;29;20497;-69
2021/03/07 10:10:10;;;;;;;8.82;5.80;;;;;;;14.40;32.70;102258.06;4874280;29;20052;-68
2021/03/07 10:12:48;;;;;;;14.15;9.10;;;;;;;14.48;32.62;102256.75;4872889;29;20045;-69
2021/03/07 10:15:34;;;;;;;11.98;8.90;;;;;;;14.61;32.41;102249.09;4873065;29;20053;-74
2021/03/07 10:18:16;;;;;;;10.38;5.85;;;;;;;14.75;32.11;102244.94;4873333;29;20059;-71
2021/03/07 10:20:46;;;;;;;11.02;6.28;;;;;;;14.85;31.88;102244.41;4872294;29;20049;-71
2021/03/07 10:23:13;;;;;;;9.43;5.32;;;;;;;14.97;31.70;102242.94;4872712;29;20045;-69
2021/03/07 10:25:41;;;;;;;9.05;5.47;;;;;;;15.07;31.65;102237.16;4874074;29;20049;-68
2021/03/07 10:28:30;;;;;;;8.90;5.45;;;;;;;15.18;31.54;102229.53;4878645;29;20059;-68
2021/03/07 10:31:16;;;;;;;10.10;6.05;;;;;;;15.28;31.31;102227.25;4882016;29;20049;-68
2021/03/07 10:33:43;;;;;;;7.65;5.93;;;;;;;15.35;31.10;102218.91;4879091;29;20045;-63
2021/03/07 10:36:18;;;;;;;9.38;6.57;;;;;;;15.47;30.99;102222.69;4874674;29;20052;-65
2021/03/07 10:39:08;;;;;;;8.90;7.40;;;;;;;15.58;31.01;102211.53;4874751;29;20079;-66
2021/03/07 10:41:34;;;;;;;8.25;6.53;;;;;;;15.67;30.78;102210.19;4882105;29;20056;-65
2021/03/07 10:44:05;;;;;;;7.50;5.53;;;;;;;15.76;30.25;102200.88;4890912;29;20088;-65
2021/03/07 10:46:35;;;;;;;13.27;8.60;;;;;;;15.87;30.26;102202.94;4887189;29;20052;-63
2021/03/07 10:49:19;;;;;;;29.63;20.77;;;;;;;15.96;30.40;102192.72;4892810;29;20048;-66
2021/03/07 10:51:46;;;;;;;31.17;24.13;;;;;;;15.99;30.55;102192.53;4895815;29;20059;-65
2021/03/07 10:54:12;;;;;;;13.85;11.30;;;;;;;16.06;30.22;102200.13;4896023;29;20056;-62
2021/03/07 10:56:40;;;;;;;33.33;5.00;;;;;;;16.13;30.88;102193.53;4885248;29;20052;-70
2021/03/07 10:59:08;;;;;;;19.02;4.82;;;;;;;16.34;35.61;102196.78;4881463;29;20529;-69
2021/03/07 11:01:34;;;;;;;10.90;5.93;;;;;;;16.57;37.48;102194.53;4893790;29;20044;-67
2021/03/07 11:04:00;;;;;;;21.80;5.82;;;;;;;16.67;36.77;102190.44;4891136;29;20049;-64
2021/03/07 11:06:26;;;;;;;12.10;5.65;;;;;;;16.82;37.99;102186.00;4888757;29;20044;-62
2021/03/07 11:08:53;;;;;;;16.50;6.00;;;;;;;16.98;38.45;102180.66;4883693;29;20570;-63
2021/03/07 11:11:19;;;;;;;8.75;5.82;;;;;;;17.13;38.71;102173.56;4888651;29;20053;-63
2021/03/07 11:13:45;;;;;;;12.60;5.60;;;;;;;17.27;38.05;102175.38;4877740;29;20049;-65
2021/03/07 11:16:12;;;;;;;12.40;7.93;;;;;;;17.38;37.85;102172.03;4885451;29;20136;-63
2021/03/07 11:18:39;;;;;;;17.15;6.93;;;;;;;17.48;37.81;102169.66;4877775;29;20056;-63
2021/03/07 11:21:06;;;;;;;15.07;7.78;;;;;;;17.59;37.67;102157.41;4879802;29;20102;-63
2021/03/07 11:23:34;;;;;;;11.85;8.23;;;;;;;17.68;37.48;102155.13;4877907;29;20053;-62
2021/03/07 11:26:03;;;;;;;26.88;20.70;;;;;;;17.56;34.72;102159.38;4877918;29;20517;-66
2021/03/07 11:28:30;;;;;;;20.60;17.15;;;;;;;17.36;32.63;102152.72;4876772;29;20045;-66
2021/03/07 11:30:56;;;;;;;16.83;11.05;;;;;;;17.24;31.74;102157.84;4877775;29;20056;-64
2021/03/07 11:33:23;;;;;;;12.90;8.60;;;;;;;17.23;31.00;102142.00;4877424;29;20053;-68
2021/03/07 11:35:51;;;;;;;9.82;7.55;;;;;;;17.27;30.40;102146.19;4883705;29;20056;-68
2021/03/07 11:38:18;;;;;;;8.18;6.63;;;;;;;17.17;29.86;102145.06;4882657;29;20052;-69